Time;durP1;ratioP1;P1;durP2;ratioP2;P2;SDS_P1;SDS_P2;PMS_P1;PMS_P2;Temp;Humidity;BMP_temperature;BMP_pressure;BME280_temperature;BME280_humidity;BME280_pressure;Samples;Min_cycle;Max_cycle;Signal;HPM_P1;HPM_P2
2022/03/06 00:00:18;;;;;;;2.95;2.05;;;8.20;99.90;;;;;;4905780;29;20078;-84
2022/03/06 00:02:45;;;;;;;4.88;2.20;;;8.10;99.90;;;;;;4937231;29;20036;-84
2022/03/06 00:05:15;;;;;;;3.95;2.33;;;8.10;99.90;;;;;;4937399;29;20024;-84
2022/03/06 00:07:41;;;;;;;3.67;2.35;;;8.10;99.90;;;;;;4901708;29;20124;-84
2022/03/06 00:10:08;;;;;;;5.88;2.58;;;8.10;99.90;;;;;;4921241;29;20044;-84
2022/03/06 00:12:35;;;;;;;4.78;1.80;;;8.10;99.90;;;;;;4937122;29;20044;-84
2022/03/06 00:15:02;;;;;;;2.63;1.50;;;8.10;99.90;;;;;;4921253;29;20476;-84
2022/03/06 00:17:29;;;;;;;1.98;1.60;;;8.10;99.90;;;;;;4920894;29;20520;-84
2022/03/06 00:19:55;;;;;;;10.25;1.83;;;8.10;99.90;;;;;;4920554;29;20028;-84
2022/03/06 00:22:22;;;;;;;1.67;1.20;;;8.10;99.90;;;;;;4921212;29;20063;-84
2022/03/06 00:24:49;;;;;;;1.27;0.90;;;8.00;99.90;;;;;;4921231;29;20035;-84
2022/03/06 00:27:15;;;;;;;5.05;1.60;;;8.00;99.90;;;;;;4921236;29;20449;-84
2022/03/06 00:29:42;;;;;;;2.25;1.38;;;8.00;99.90;;;;;;4920907;29;20032;-84
2022/03/06 00:32:08;;;;;;;2.70;1.10;;;8.00;99.90;;;;;;4920981;29;20043;-85
2022/03/06 00:34:35;;;;;;;2.58;1.27;;;8.00;99.90;;;;;;4936744;29;20027;-84
2022/03/06 00:37:01;;;;;;;1.48;0.90;;;7.90;99.90;;;;;;4920897;29;20031;-84
2022/03/06 00:39:28;;;;;;;4.13;0.95;;;8.00;99.90;;;;;;4920944;29;20036;-85
2022/03/06 00:41:57;;;;;;;3.17;1.10;;;7.90;99.90;;;;;;4920728;29;20038;-84
2022/03/06 00:44:23;;;;;;;3.63;1.10;;;7.90;99.90;;;;;;4920811;29;20039;-83
2022/03/06 00:46:49;;;;;;;3.03;1.00;;;7.90;99.90;;;;;;4920712;29;20040;-84
2022/03/06 00:49:16;;;;;;;1.52;1.15;;;7.90;99.90;;;;;;4936435;29;20401;-83
2022/03/06 00:51:43;;;;;;;1.88;1.13;;;7.90;99.90;;;;;;4920621;29;20474;-84
2022/03/06 00:54:09;;;;;;;1.58;0.90;;;7.90;99.90;;;;;;4920719;29;20110;-85
2022/03/06 00:56:36;;;;;;;3.13;0.85;;;7.80;99.90;;;;;;4920429;29;20039;-84
2022/03/06 00:59:02;;;;;;;3.20;0.90;;;7.80;99.90;;;;;;4936290;29;20038;-84
2022/03/06 01:01:29;;;;;;;3.75;1.20;;;7.80;99.90;;;;;;4920302;29;20038;-83
2022/03/06 01:03:55;;;;;;;2.60;0.70;;;7.80;99.90;;;;;;4920340;29;20032;-84
2022/03/06 01:06:22;;;;;;;2.00;0.98;;;7.80;99.90;;;;;;4920529;29;20030;-83
2022/03/06 01:08:48;;;;;;;1.63;1.00;;;7.60;99.90;;;;;;4920323;28;20028;-84
2022/03/06 01:11:16;;;;;;;1.63;0.70;;;7.60;99.90;;;;;;4939227;29;20505;-83
2022/03/06 01:13:42;;;;;;;0.60;0.47;;;7.60;99.90;;;;;;4936696;29;20559;-84
2022/03/06 01:16:09;;;;;;;0.65;0.55;;;7.50;99.90;;;;;;4939403;29;20031;-83
2022/03/06 01:18:35;;;;;;;2.30;0.75;;;7.60;99.90;;;;;;4923500;29;20484;-84
2022/03/06 01:21:02;;;;;;;0.80;0.63;;;7.60;99.90;;;;;;4923359;29;20062;-84
2022/03/06 01:23:29;;;;;;;3.70;0.73;;;7.50;99.90;;;;;;4939171;29;20039;-84
2022/03/06 01:25:56;;;;;;;2.83;1.00;;;7.60;99.90;;;;;;4923166;29;20031;-84
2022/03/06 01:28:23;;;;;;;1.30;0.60;;;7.50;99.90;;;;;;4939062;29;20042;-83
2022/03/06 01:30:50;;;;;;;0.90;0.70;;;7.50;99.90;;;;;;4923041;29;20481;-84
2022/03/06 01:33:16;;;;;;;2.53;0.75;;;7.40;99.90;;;;;;4923138;29;20047;-84
2022/03/06 01:35:46;;;;;;;1.15;0.85;;;7.50;99.90;;;;;;4938893;29;20079;-84
2022/03/06 01:38:13;;;;;;;2.80;1.02;;;7.50;99.90;;;;;;4939092;29;20094;-84
2022/03/06 01:40:39;;;;;;;3.05;1.10;;;7.50;99.90;;;;;;4939228;29;20026;-83
2022/03/06 01:43:05;;;;;;;1.15;0.70;;;7.40;99.90;;;;;;4938868;29;20031;-84
2022/03/06 01:45:32;;;;;;;1.05;0.50;;;7.40;99.90;;;;;;4939022;29;20106;-84
2022/03/06 01:47:59;;;;;;;1.27;0.70;;;7.40;99.90;;;;;;4923091;29;20024;-84
2022/03/06 01:50:32;;;;;;;1.95;0.98;;;7.40;99.90;;;;;;4938979;29;20532;-84
2022/03/06 01:53:01;;;;;;;5.57;1.35;;;7.40;99.90;;;;;;4938926;29;20040;-84
2022/03/06 01:55:28;;;;;;;2.35;1.25;;;7.30;99.90;;;;;;4922904;29;20055;-84
2022/03/06 01:57:58;;;;;;;1.17;0.98;;;7.40;99.90;;;;;;4938840;29;20086;-84
2022/03/06 02:00:27;;;;;;;1.85;0.82;;;7.40;99.90;;;;;;4923082;29;20111;-84
2022/03/06 02:02:57;;;;;;;2.63;1.40;;;7.50;99.90;;;;;;4939016;29;20023;-84
2022/03/06 02:05:24;;;;;;;2.20;0.90;;;7.50;99.90;;;;;;4938966;29;20035;-83
2022/03/06 02:07:54;;;;;;;6.78;1.35;;;7.50;99.90;;;;;;4938945;29;20480;-84
2022/03/06 02:10:21;;;;;;;4.88;1.17;;;7.50;99.90;;;;;;4926522;29;20059;-85
2022/03/06 02:12:48;;;;;;;3.95;1.10;;;7.50;99.90;;;;;;4919924;29;20039;-84
2022/03/06 02:15:17;;;;;;;1.17;0.98;;;7.50;99.90;;;;;;4919903;29;20116;-84
2022/03/06 02:17:50;;;;;;;3.10;1.27;;;7.60;99.90;;;;;;4919439;29;20036;-85
2022/03/06 02:20:23;;;;;;;1.33;1.08;;;7.50;99.90;;;;;;4919667;29;20032;-84
2022/03/06 02:23:09;;;;;;;3.30;1.13;;;7.50;99.90;;;;;;4935469;29;20036;-84
2022/03/06 02:25:37;;;;;;;3.83;0.98;;;7.40;99.90;;;;;;4935476;29;20035;-84
2022/03/06 02:28:07;;;;;;;1.00;1.00;;;7.40;99.90;;;;;;4919576;29;20028;-84
2022/03/06 02:30:39;;;;;;;2.05;1.20;;;7.40;99.90;;;;;;4935533;29;20027;-84
2022/03/06 02:33:08;;;;;;;3.03;1.15;;;7.50;99.90;;;;;;4919591;29;20217;-84
2022/03/06 02:35:35;;;;;;;1.10;0.82;;;7.50;99.90;;;;;;4919557;29;20035;-83
2022/03/06 02:38:03;;;;;;;2.78;1.20;;;7.60;99.90;;;;;;4919437;29;20397;-84
2022/03/06 02:40:29;;;;;;;2.90;1.23;;;7.60;99.90;;;;;;4919446;29;20024;-84
2022/03/06 02:42:56;;;;;;;2.75;1.10;;;7.50;99.90;;;;;;4922390;29;20039;-84
2022/03/06 02:45:32;;;;;;;2.58;0.70;;;7.50;99.90;;;;;;4922694;29;20024;-84
2022/03/06 02:48:00;;;;;;;1.25;1.00;;;7.50;99.90;;;;;;4922871;29;20032;-84
2022/03/06 02:50:31;;;;;;;5.10;1.15;;;7.50;99.90;;;;;;4922716;29;20028;-84
2022/03/06 02:53:03;;;;;;;3.60;1.10;;;7.50;99.90;;;;;;4922689;29;20040;-83
2022/03/06 02:55:30;;;;;;;1.27;1.00;;;7.60;99.90;;;;;;4922926;29;20038;-84
2022/03/06 02:57:57;;;;;;;2.40;1.17;;;7.60;99.90;;;;;;4922833;29;20392;-84
2022/03/06 03:00:27;;;;;;;1.95;1.27;;;7.60;99.90;;;;;;4922724;29;20110;-84
2022/03/06 03:02:57;;;;;;;4.28;1.38;;;7.70;99.90;;;;;;4922600;29;20039;-84
2022/03/06 03:05:25;;;;;;;3.78;1.60;;;7.60;99.90;;;;;;4922397;29;20469;-84
2022/03/06 03:07:52;;;;;;;3.17;1.95;;;7.50;99.90;;;;;;4938183;29;20031;-84
2022/03/06 03:10:25;;;;;;;4.45;1.13;;;7.60;99.90;;;;;;4922486;29;20048;-84
2022/03/06 03:12:52;;;;;;;3.80;1.52;;;7.50;99.90;;;;;;4922230;29;20527;-84
2022/03/06 03:15:19;;;;;;;4.60;1.73;;;7.60;99.90;;;;;;4922346;29;20051;-84
2022/03/06 03:17:46;;;;;;;4.88;2.08;;;7.60;99.90;;;;;;4922589;29;20414;-83
2022/03/06 03:20:14;;;;;;;4.28;1.42;;;7.60;99.90;;;;;;4922333;29;20035;-84
2022/03/06 03:22:41;;;;;;;3.63;1.70;;;7.60;99.90;;;;;;4922281;29;20425;-84
2022/03/06 03:25:08;;;;;;;4.03;1.75;;;7.60;99.90;;;;;;4922231;29;20028;-85
2022/03/06 03:27:35;;;;;;;3.88;2.15;;;7.60;99.90;;;;;;4937998;29;20035;-84
2022/03/06 03:30:08;;;;;;;6.15;2.30;;;7.50;99.90;;;;;;4922025;29;20027;-84
2022/03/06 03:32:34;;;;;;;5.07;2.00;;;7.50;99.90;;;;;;4922022;29;20127;-84
2022/03/06 03:35:01;;;;;;;5.45;1.77;;;7.50;99.90;;;;;;4922081;29;20031;-85
2022/03/06 03:37:28;;;;;;;8.63;2.78;;;7.60;99.90;;;;;;4921970;29;20126;-85
2022/03/06 03:39:55;;;;;;;13.40;2.72;;;7.60;99.90;;;;;;4922227;29;20139;-84
2022/03/06 03:42:22;;;;;;;7.97;3.03;;;7.70;99.90;;;;;;4922010;29;20127;-85
2022/03/06 03:44:49;;;;;;;10.10;3.55;;;7.60;99.90;;;;;;4921793;29;20020;-85
2022/03/06 03:47:19;;;;;;;13.55;4.85;;;7.60;99.90;;;;;;4921869;29;20032;-84
2022/03/06 03:49:45;;;;;;;9.98;4.95;;;7.60;99.90;;;;;;4921813;29;20023;-84
2022/03/06 03:52:12;;;;;;;11.80;5.45;;;7.60;99.90;;;;;;4937200;29;20046;-84
2022/03/06 03:54:39;;;;;;;13.30;5.97;;;7.50;99.90;;;;;;4921827;29;20019;-84
2022/03/06 03:57:08;;;;;;;15.93;5.95;;;7.50;99.90;;;;;;4937552;29;20541;-84
2022/03/06 03:59:35;;;;;;;17.20;5.32;;;7.60;99.90;;;;;;4921673;29;20034;-84
2022/03/06 04:02:01;;;;;;;14.27;6.72;;;7.50;99.90;;;;;;4921612;29;20035;-84
2022/03/06 04:04:28;;;;;;;15.15;6.32;;;7.50;99.90;;;;;;4921650;29;20485;-84
2022/03/06 04:06:56;;;;;;;16.75;6.25;;;7.40;99.90;;;;;;4921443;29;20035;-83
2022/03/06 04:09:23;;;;;;;16.55;6.15;;;7.40;99.90;;;;;;4921211;29;20569;-85
2022/03/06 04:11:52;;;;;;;16.48;6.32;;;7.50;99.90;;;;;;4921354;29;20040;-84
2022/03/06 04:14:19;;;;;;;19.88;6.70;;;7.50;99.90;;;;;;4921513;29;20031;-84
2022/03/06 04:16:46;;;;;;;15.85;7.38;;;7.50;99.90;;;;;;4921350;29;20050;-84
2022/03/06 04:19:12;;;;;;;16.65;6.35;;;7.50;99.90;;;;;;4921462;29;20028;-85
2022/03/06 04:21:42;;;;;;;20.80;7.55;;;7.40;99.90;;;;;;4921260;29;20090;-84
2022/03/06 04:24:09;;;;;;;24.88;8.18;;;7.40;99.90;;;;;;4921264;29;20050;-84
2022/03/06 04:26:36;;;;;;;20.02;8.02;;;7.30;99.90;;;;;;4921131;29;20039;-85
2022/03/06 04:29:04;;;;;;;14.07;7.32;;;7.30;99.90;;;;;;4936902;29;20122;-84
2022/03/06 04:31:31;;;;;;;24.67;7.90;;;7.20;99.90;;;;;;4920925;29;20020;-85
2022/03/06 04:33:58;;;;;;;30.38;8.25;;;7.20;99.90;;;;;;4920960;29;20080;-84
2022/03/06 04:36:25;;;;;;;19.08;8.13;;;7.10;99.90;;;;;;4920985;29;20544;-84
2022/03/06 04:38:55;;;;;;;23.60;9.07;;;7.10;99.90;;;;;;4936728;29;20046;-84
2022/03/06 04:41:21;;;;;;;24.88;8.77;;;7.10;99.90;;;;;;4936411;29;20095;-84
2022/03/06 04:43:48;;;;;;;22.08;9.15;;;7.00;99.90;;;;;;4920678;29;20032;-84
2022/03/06 04:46:15;;;;;;;27.88;8.80;;;7.00;99.90;;;;;;4920783;29;20450;-84
2022/03/06 04:48:41;;;;;;;27.08;9.90;;;7.00;99.90;;;;;;4936745;29;20083;-84
2022/03/06 04:51:14;;;;;;;25.33;10.23;;;6.90;99.90;;;;;;4920612;29;20034;-84
2022/03/06 04:53:42;;;;;;;31.45;11.15;;;6.90;99.90;;;;;;4920938;29;20090;-85
2022/03/06 04:56:09;;;;;;;30.92;11.27;;;6.90;99.90;;;;;;4920680;29;20019;-85
2022/03/06 04:58:36;;;;;;;30.70;10.70;;;6.80;99.90;;;;;;4936287;29;20036;-85
2022/03/06 05:01:04;;;;;;;30.48;10.50;;;6.70;99.90;;;;;;4920502;29;20052;-84
2022/03/06 05:03:31;;;;;;;30.00;11.00;;;6.80;99.90;;;;;;4920361;29;20375;-83
2022/03/06 05:05:58;;;;;;;33.28;11.30;;;6.60;99.90;;;;;;4935703;29;20028;-84
2022/03/06 05:08:28;;;;;;;34.78;12.25;;;6.60;99.90;;;;;;4920580;29;20020;-85
2022/03/06 05:10:57;;;;;;;32.97;12.27;;;6.50;99.90;;;;;;4920190;29;20502;-84
2022/03/06 05:13:25;;;;;;;29.10;11.13;;;6.50;99.90;;;;;;4920472;29;20075;-84
2022/03/06 05:15:53;;;;;;;33.40;12.52;;;6.50;99.90;;;;;;4936113;29;20035;-84
2022/03/06 05:18:20;;;;;;;28.15;12.25;;;6.50;99.90;;;;;;4920193;29;20028;-84
2022/03/06 05:20:48;;;;;;;40.70;12.75;;;6.50;99.90;;;;;;4920299;29;20039;-84
2022/03/06 05:23:16;;;;;;;35.20;10.93;;;6.50;99.90;;;;;;4919228;29;20032;-83
2022/03/06 05:25:43;;;;;;;33.50;11.10;;;6.60;99.90;;;;;;4920217;29;20454;-84
2022/03/06 05:28:10;;;;;;;30.13;11.73;;;6.50;99.90;;;;;;4920072;29;20036;-84
2022/03/06 05:30:37;;;;;;;29.40;11.57;;;6.50;99.90;;;;;;4935809;29;20028;-84
2022/03/06 05:33:07;;;;;;;32.22;11.73;;;6.40;99.90;;;;;;4920170;29;20497;-84
2022/03/06 05:35:36;;;;;;;32.75;12.18;;;6.40;99.90;;;;;;4920181;29;20028;-84
2022/03/06 05:38:04;;;;;;;33.72;11.75;;;6.50;99.90;;;;;;4920222;29;20028;-84
2022/03/06 05:40:35;;;;;;;30.13;11.85;;;6.50;99.90;;;;;;4935670;29;20028;-84
2022/03/06 05:43:01;;;;;;;26.38;11.55;;;6.50;99.90;;;;;;4919974;29;20034;-84
2022/03/06 05:45:28;;;;;;;31.85;11.55;;;6.50;99.90;;;;;;4919938;29;20036;-84
2022/03/06 05:47:55;;;;;;;28.25;10.75;;;6.50;99.90;;;;;;4920034;29;20110;-84
2022/03/06 05:50:22;;;;;;;26.38;10.48;;;6.50;99.90;;;;;;4919845;29;20143;-84
2022/03/06 05:52:51;;;;;;;31.70;12.25;;;6.50;99.90;;;;;;4919890;29;20047;-84
2022/03/06 05:55:18;;;;;;;33.92;12.05;;;6.50;99.90;;;;;;4919939;29;20040;-83
2022/03/06 05:57:46;;;;;;;31.65;12.02;;;6.50;99.90;;;;;;4920068;29;20066;-84
2022/03/06 06:00:16;;;;;;;26.75;10.90;;;6.50;99.90;;;;;;4919865;29;20051;-84
2022/03/06 06:02:42;;;;;;;34.45;12.70;;;6.50;99.90;;;;;;4919879;29;20027;-84
2022/03/06 06:05:10;;;;;;;37.25;13.15;;;6.50;99.90;;;;;;4919711;29;20031;-84
2022/03/06 06:07:37;;;;;;;31.15;11.30;;;6.60;99.90;;;;;;4919715;29;20497;-83
2022/03/06 06:10:05;;;;;;;30.60;11.48;;;6.60;99.90;;;;;;4919596;29;20103;-84
2022/03/06 06:12:31;;;;;;;30.35;13.20;;;6.60;99.90;;;;;;4935487;29;20046;-84
2022/03/06 06:14:58;;;;;;;24.02;10.82;;;6.60;99.90;;;;;;4919832;29;20123;-84
2022/03/06 06:17:24;;;;;;;34.65;12.07;;;6.80;99.90;;;;;;4922131;29;20043;-84
2022/03/06 06:19:51;;;;;;;34.60;11.00;;;6.90;99.90;;;;;;4923643;29;20023;-84
2022/03/06 06:22:18;;;;;;;35.15;12.45;;;7.00;99.90;;;;;;4939301;29;20099;-84
2022/03/06 06:24:44;;;;;;;32.40;11.32;;;7.10;99.90;;;;;;4923257;29;20024;-85
2022/03/06 06:27:11;;;;;;;34.78;10.88;;;7.20;99.90;;;;;;4922351;29;20028;-84
2022/03/06 06:29:38;;;;;;;25.52;9.48;;;7.20;99.90;;;;;;4923100;29;20032;-86
2022/03/06 06:32:06;;;;;;;25.80;10.10;;;7.30;99.90;;;;;;4919321;29;20135;-85
2022/03/06 06:34:33;;;;;;;26.77;10.48;;;7.30;99.90;;;;;;4903641;29;20119;-86
2022/03/06 06:36:59;;;;;;;29.45;10.75;;;7.40;99.90;;;;;;4903653;29;20050;-86
2022/03/06 06:39:26;;;;;;;25.70;10.93;;;7.40;99.90;;;;;;4903945;29;20050;-85
2022/03/06 06:41:53;;;;;;;28.63;10.20;;;7.50;99.90;;;;;;4903587;29;20047;-85
2022/03/06 06:44:19;;;;;;;33.72;10.75;;;7.60;99.90;;;;;;4903520;29;20028;-85
2022/03/06 06:46:46;;;;;;;29.40;9.20;;;7.60;99.90;;;;;;4903445;29;20036;-83
2022/03/06 06:49:13;;;;;;;23.63;9.07;;;7.70;99.90;;;;;;4903130;29;20040;-84
2022/03/06 06:51:40;;;;;;;31.15;10.00;;;7.70;99.90;;;;;;4916225;29;20046;-84
2022/03/06 06:54:06;;;;;;;29.95;9.75;;;7.80;99.90;;;;;;4903201;29;20462;-85
2022/03/06 06:56:33;;;;;;;21.88;8.65;;;7.90;99.90;;;;;;4903080;29;20125;-86
2022/03/06 06:58:59;;;;;;;23.23;9.52;;;8.00;99.90;;;;;;4903167;29;20032;-85
2022/03/06 07:01:26;;;;;;;30.77;10.30;;;8.10;99.90;;;;;;4903033;29;20025;-84
2022/03/06 07:03:52;;;;;;;22.98;9.63;;;8.20;99.90;;;;;;4906569;29;20036;-85
2022/03/06 07:06:19;;;;;;;21.65;9.20;;;8.10;99.90;;;;;;4922524;29;20507;-85
2022/03/06 07:08:46;;;;;;;22.65;9.68;;;8.30;99.90;;;;;;4938543;29;20066;-87
2022/03/06 07:11:15;;;;;;;22.45;9.15;;;8.20;99.90;;;;;;4922509;29;20135;-85
2022/03/06 07:13:42;;;;;;;27.55;10.60;;;8.20;99.90;;;;;;4922280;29;20074;-85
2022/03/06 07:16:08;;;;;;;21.63;8.95;;;8.30;99.90;;;;;;4922485;29;20028;-83
2022/03/06 07:18:35;;;;;;;26.50;9.20;;;8.40;99.90;;;;;;4938448;29;20036;-86
2022/03/06 07:21:02;;;;;;;26.60;9.60;;;8.50;99.90;;;;;;4922312;29;20028;-84
2022/03/06 07:23:32;;;;;;;20.95;8.30;;;8.50;99.90;;;;;;4922136;29;20032;-85
2022/03/06 07:25:58;;;;;;;23.17;8.65;;;8.50;99.90;;;;;;4938000;29;20036;-84
2022/03/06 07:28:29;;;;;;;24.38;9.27;;;8.80;99.90;;;;;;4920760;29;20083;-86
2022/03/06 07:30:56;;;;;;;39.33;10.63;;;8.70;99.90;;;;;;4937964;29;20036;-86
2022/03/06 07:33:22;;;;;;;20.77;8.52;;;8.70;99.90;;;;;;4922110;29;20031;-85
2022/03/06 07:35:49;;;;;;;25.38;8.73;;;8.90;99.90;;;;;;4921996;29;20027;-87
2022/03/06 07:38:16;;;;;;;22.95;9.80;;;8.90;99.90;;;;;;4922074;29;20063;-85
2022/03/06 07:40:42;;;;;;;28.52;9.82;;;8.90;99.90;;;;;;4921993;29;20039;-85
2022/03/06 07:43:11;;;;;;;21.00;9.75;;;9.00;99.90;;;;;;4922271;29;20110;-85
2022/03/06 07:45:40;;;;;;;22.30;8.35;;;9.00;99.90;;;;;;4937601;29;20039;-86
2022/03/06 07:48:06;;;;;;;29.88;9.77;;;9.00;99.90;;;;;;4921812;29;20036;-85
2022/03/06 07:50:35;;;;;;;21.40;9.43;;;9.00;99.90;;;;;;4921785;29;20028;-84
2022/03/06 07:53:02;;;;;;;24.65;9.18;;;9.10;99.90;;;;;;4937571;29;20044;-84
2022/03/06 07:55:28;;;;;;;26.88;9.45;;;9.20;99.90;;;;;;4921871;29;20079;-85
2022/03/06 07:57:55;;;;;;;20.02;8.45;;;9.20;99.90;;;;;;4921642;29;20027;-84
2022/03/06 08:00:21;;;;;;;24.02;9.00;;;9.10;99.90;;;;;;4921672;29;20027;-84
2022/03/06 08:02:48;;;;;;;24.00;8.15;;;9.30;99.90;;;;;;4937251;29;20038;-85
2022/03/06 08:05:15;;;;;;;19.98;8.80;;;9.40;99.90;;;;;;4921463;29;20028;-84
2022/03/06 08:07:42;;;;;;;19.15;8.32;;;9.60;99.90;;;;;;4937139;29;20032;-84
2022/03/06 08:10:09;;;;;;;19.80;8.52;;;9.60;99.90;;;;;;4921105;29;20043;-84
2022/03/06 08:12:36;;;;;;;21.73;7.70;;;9.80;99.90;;;;;;4936983;29;20134;-84
2022/03/06 08:15:07;;;;;;;22.75;8.43;;;9.90;99.90;;;;;;4921404;29;20508;-84
2022/03/06 08:17:35;;;;;;;20.90;8.50;;;10.00;99.90;;;;;;4921172;29;20032;-86
2022/03/06 08:20:04;;;;;;;19.70;7.82;;;10.20;99.90;;;;;;4937080;29;20023;-85
2022/03/06 08:22:32;;;;;;;24.42;8.73;;;10.40;99.90;;;;;;4921162;29;20065;-86
2022/03/06 08:24:59;;;;;;;19.17;7.95;;;10.60;99.90;;;;;;4936816;29;20032;-88
2022/03/06 08:27:25;;;;;;;21.08;8.23;;;10.50;99.90;;;;;;4921427;29;20028;-86
2022/03/06 08:29:52;;;;;;;23.40;9.88;;;10.50;99.90;;;;;;4921012;29;20036;-86
2022/03/06 08:32:19;;;;;;;21.13;8.13;;;10.40;99.90;;;;;;4921266;29;20118;-87
2022/03/06 08:34:46;;;;;;;33.42;10.50;;;10.20;99.90;;;;;;4920965;29;20024;-87
2022/03/06 08:37:13;;;;;;;18.63;7.75;;;10.30;99.90;;;;;;4920830;29;20035;-87
2022/03/06 08:39:42;;;;;;;28.95;8.13;;;10.50;99.90;;;;;;4919919;29;20028;-86
2022/03/06 08:42:09;;;;;;;18.92;7.85;;;10.60;99.90;;;;;;4920823;29;20577;-88
2022/03/06 08:44:36;;;;;;;18.02;8.65;;;10.60;99.90;;;;;;4920619;29;20020;-85
2022/03/06 08:47:03;;;;;;;16.98;7.50;;;10.70;99.90;;;;;;4936601;29;20118;-88
2022/03/06 08:49:30;;;;;;;19.10;8.02;;;10.80;99.90;;;;;;4920637;29;20027;-87
2022/03/06 08:51:56;;;;;;;35.42;8.82;;;10.60;99.90;;;;;;4920745;29;20118;-85
2022/03/06 08:54:24;;;;;;;18.70;7.18;;;10.50;99.90;;;;;;4920601;29;20036;-87
2022/03/06 08:56:51;;;;;;;16.02;7.18;;;10.50;99.90;;;;;;4920580;29;20031;-85
2022/03/06 08:59:26;;;;;;;20.52;8.93;;;10.50;99.90;;;;;;4920530;29;20487;-83
2022/03/06 09:01:55;;;;;;;21.30;8.25;;;10.60;99.90;;;;;;4920569;29;20059;-84
2022/03/06 09:04:24;;;;;;;21.13;7.72;;;10.60;99.90;;;;;;4920291;29;20544;-86
2022/03/06 09:06:52;;;;;;;18.50;7.22;;;10.50;99.90;;;;;;4920214;29;20074;-84
2022/03/06 09:09:19;;;;;;;22.08;8.30;;;10.60;99.90;;;;;;4920449;29;20481;-85
2022/03/06 09:11:45;;;;;;;12.88;6.10;;;10.90;99.90;;;;;;4920262;29;20504;-89
2022/03/06 09:14:12;;;;;;;17.02;7.60;;;11.00;99.90;;;;;;4922691;29;20058;-86
2022/03/06 09:16:38;;;;;;;16.60;7.22;;;11.10;99.90;;;;;;4921082;29;20369;-90
2022/03/06 09:19:05;;;;;;;20.25;7.55;;;11.30;99.90;;;;;;4920416;29;20035;-91
2022/03/06 09:21:32;;;;;;;22.52;7.75;;;11.30;99.90;;;;;;4920367;29;20371;-90
2022/03/06 09:24:00;;;;;;;17.95;7.70;;;11.10;99.90;;;;;;4920292;29;20501;-90
2022/03/06 09:26:27;;;;;;;17.20;7.78;;;10.90;99.90;;;;;;4920226;29;20035;-90
2022/03/06 09:28:54;;;;;;;19.60;7.80;;;10.80;99.90;;;;;;4920293;29;20028;-89
2022/03/06 09:31:22;;;;;;;19.13;7.40;;;10.80;99.90;;;;;;4920324;29;20032;-89
2022/03/06 09:33:48;;;;;;;22.73;7.30;;;10.80;99.90;;;;;;4920558;29;20036;-89
2022/03/06 09:36:15;;;;;;;16.75;6.45;;;10.80;99.90;;;;;;4920128;29;20042;-89
2022/03/06 09:38:41;;;;;;;17.05;6.57;;;11.10;99.90;;;;;;4920242;29;20027;-90
2022/03/06 09:41:09;;;;;;;25.05;9.27;;;11.10;99.90;;;;;;4920062;29;20027;-90
2022/03/06 09:43:38;;;;;;;25.65;7.65;;;11.10;99.90;;;;;;4935855;29;20039;-89
2022/03/06 09:46:08;;;;;;;20.15;7.50;;;10.90;99.90;;;;;;4920071;29;20031;-89
2022/03/06 09:48:37;;;;;;;20.70;6.93;;;10.90;99.90;;;;;;4920289;29;20055;-89
2022/03/06 09:51:05;;;;;;;21.60;7.22;;;10.90;99.90;;;;;;4921806;29;20039;-91
2022/03/06 09:53:32;;;;;;;17.70;6.55;;;11.00;99.90;;;;;;4923673;29;20059;-89
2022/03/06 09:55:59;;;;;;;22.55;7.00;;;11.10;99.90;;;;;;4923933;29;20485;-90
2022/03/06 09:58:26;;;;;;;15.75;7.18;;;11.20;99.90;;;;;;4939636;29;20031;-89
2022/03/06 10:00:53;;;;;;;20.58;7.28;;;11.00;99.90;;;;;;4924361;29;20023;-90
2022/03/06 10:03:22;;;;;;;20.90;7.15;;;11.20;99.90;;;;;;4924039;29;20031;-90
2022/03/06 10:05:50;;;;;;;19.90;7.10;;;11.30;99.90;;;;;;4923833;29;20035;-89
2022/03/06 10:08:28;;;;;;;23.42;7.90;;;11.40;99.90;;;;;;4930179;29;20035;-89
2022/03/06 10:11:07;;;;;;;26.15;8.95;;;11.50;99.90;;;;;;4923550;29;20086;-87
2022/03/06 10:13:35;;;;;;;19.63;8.38;;;11.50;99.90;;;;;;4923547;29;20099;-87
2022/03/06 10:16:18;;;;;;;28.08;9.25;;;11.70;99.90;;;;;;4923394;29;20413;-88
2022/03/06 10:18:54;;;;;;;17.77;7.75;;;11.70;99.90;;;;;;4923430;29;20127;-87
2022/03/06 10:21:27;;;;;;;18.38;8.98;;;11.80;99.90;;;;;;4923384;29;20066;-87
2022/03/06 10:24:08;;;;;;;24.58;8.30;;;11.70;99.90;;;;;;4939266;29;20023;-87
2022/03/06 10:26:37;;;;;;;16.25;7.45;;;11.70;99.90;;;;;;4939187;29;20043;-88
2022/03/06 10:29:11;;;;;;;22.65;8.02;;;11.70;99.90;;;;;;4923156;29;20072;-87
2022/03/06 10:31:54;;;;;;;20.20;7.63;;;11.50;99.90;;;;;;4938990;29;20043;-87
2022/03/06 10:34:35;;;;;;;17.27;7.78;;;11.50;99.90;;;;;;4923151;29;20050;-86
2022/03/06 10:37:03;;;;;;;19.23;7.63;;;11.40;99.90;;;;;;4923291;29;20031;-86
2022/03/06 10:39:46;;;;;;;16.73;7.60;;;11.40;99.90;;;;;;4923264;29;20078;-84
2022/03/06 10:42:21;;;;;;;14.50;7.28;;;11.40;99.90;;;;;;4923296;29;20046;-85
2022/03/06 10:44:48;;;;;;;18.77;8.55;;;11.60;99.90;;;;;;4938906;29;20043;-87
2022/03/06 10:47:15;;;;;;;22.48;8.10;;;11.70;99.90;;;;;;4923045;29;20103;-86
2022/03/06 10:49:41;;;;;;;22.10;8.82;;;11.80;99.90;;;;;;4940205;29;20107;-86
2022/03/06 10:52:18;;;;;;;16.77;7.85;;;11.90;99.90;;;;;;4939067;29;20043;-85
2022/03/06 10:54:55;;;;;;;19.58;6.78;;;11.90;99.90;;;;;;4922924;29;20050;-86
2022/03/06 10:57:25;;;;;;;27.23;7.82;;;11.80;99.90;;;;;;4938470;29;20440;-85
2022/03/06 10:59:52;;;;;;;20.13;7.90;;;11.60;99.90;;;;;;4922654;29;20027;-85
2022/03/06 11:02:21;;;;;;;23.13;8.23;;;11.60;99.90;;;;;;4921732;29;20028;-85
2022/03/06 11:04:53;;;;;;;53.08;17.50;;;11.70;99.90;;;;;;4922699;29;20031;-86
2022/03/06 11:07:21;;;;;;;30.85;12.02;;;11.70;99.90;;;;;;4922619;29;20115;-88
2022/03/06 11:09:50;;;;;;;26.02;9.82;;;11.80;99.90;;;;;;4922469;29;20044;-87
2022/03/06 11:12:23;;;;;;;28.00;12.55;;;11.90;99.90;;;;;;4922753;29;20494;-86
2022/03/06 11:14:50;;;;;;;22.08;8.00;;;11.80;99.90;;;;;;4938243;29;20036;-87
2022/03/06 11:17:17;;;;;;;25.20;9.00;;;11.80;99.90;;;;;;4922544;29;20032;-88
2022/03/06 11:19:44;;;;;;;18.52;8.50;;;11.90;99.90;;;;;;4922380;29;20028;-86
2022/03/06 11:22:27;;;;;;;16.30;8.40;;;11.60;99.90;;;;;;4922277;29;20043;-88
2022/03/06 11:25:02;;;;;;;17.70;7.53;;;11.60;99.90;;;;;;4938050;29;20497;-88
2022/03/06 11:28:13;;;;;;;21.13;8.50;;;11.60;99.90;;;;;;4922263;29;20042;-88
2022/03/06 11:30:41;;;;;;;17.23;6.93;;;11.60;99.90;;;;;;4922491;29;20032;-86
2022/03/06 11:33:10;;;;;;;22.08;8.32;;;11.50;99.90;;;;;;4922147;29;20036;-88
2022/03/06 11:35:43;;;;;;;22.15;8.77;;;11.60;99.90;;;;;;4937922;29;20557;-87
2022/03/06 11:38:17;;;;;;;19.25;8.88;;;11.80;99.90;;;;;;4922163;29;20511;-87
2022/03/06 11:40:48;;;;;;;22.95;9.40;;;11.80;99.90;;;;;;4937976;29;20088;-90
2022/03/06 11:43:27;;;;;;;18.23;8.00;;;11.90;99.90;;;;;;4922345;29;20032;-88
2022/03/06 11:46:03;;;;;;;16.98;8.38;;;11.80;99.90;;;;;;4930405;29;20027;-91
2022/03/06 11:48:33;;;;;;;19.92;7.85;;;11.70;99.90;;;;;;4922622;29;20123;-88
2022/03/06 11:51:15;;;;;;;15.48;7.15;;;11.50;99.90;;;;;;4922071;29;20059;-89
2022/03/06 11:54:06;;;;;;;20.67;9.27;;;11.50;99.90;;;;;;4921934;29;20106;-87
2022/03/06 11:59:04;;;;;;;15.15;7.20;;;11.80;99.90;;;;;;4937609;29;20397;-90
2022/03/06 12:01:52;;;;;;;19.45;7.15;;;11.80;99.90;;;;;;4921803;29;20027;-89
2022/03/06 12:04:46;;;;;;;24.20;9.25;;;11.70;99.90;;;;;;4921711;29;20098;-89
2022/03/06 12:07:15;;;;;;;19.35;8.02;;;11.50;99.90;;;;;;4930775;29;20082;-90
2022/03/06 12:09:46;;;;;;;23.35;8.43;;;11.60;99.90;;;;;;4937202;29;20134;-89
2022/03/06 12:12:16;;;;;;;21.20;8.40;;;11.60;99.90;;;;;;4921791;29;20162;-89
2022/03/06 12:14:44;;;;;;;25.17;8.45;;;11.40;99.90;;;;;;4921515;29;20031;-89
2022/03/06 12:17:11;;;;;;;19.90;8.13;;;11.40;99.90;;;;;;4921383;29;20485;-88
2022/03/06 12:19:44;;;;;;;19.98;9.02;;;11.30;99.90;;;;;;4921404;29;20073;-87
2022/03/06 12:22:19;;;;;;;20.77;9.10;;;11.50;99.90;;;;;;4921362;29;20027;-87
2022/03/06 12:24:48;;;;;;;24.20;9.98;;;11.60;99.90;;;;;;4938274;29;20487;-90
2022/03/06 12:27:25;;;;;;;28.60;11.82;;;11.70;99.90;;;;;;4923800;29;20472;-81
2022/03/06 12:30:00;;;;;;;17.02;8.15;;;11.70;99.90;;;;;;4938821;29;20083;-91
2022/03/06 12:35:05;;;;;;;23.60;11.98;;;11.90;99.90;;;;;;4936691;29;20409;-82
2022/03/06 12:37:37;;;;;;;15.27;7.35;;;11.90;99.90;;;;;;4920568;29;20035;-82
2022/03/06 12:40:16;;;;;;;21.95;7.57;;;11.80;99.90;;;;;;4937681;29;20027;-83
2022/03/06 12:42:45;;;;;;;19.98;8.63;;;11.50;99.90;;;;;;4936149;29;20032;-83
2022/03/06 12:45:18;;;;;;;23.38;7.90;;;11.60;99.90;;;;;;4920739;29;20163;-83
2022/03/06 12:47:47;;;;;;;19.65;7.80;;;11.60;99.90;;;;;;4920603;29;20075;-85
2022/03/06 12:50:17;;;;;;;20.40;8.40;;;11.60;99.90;;;;;;4920688;29;20020;-84
2022/03/06 12:52:45;;;;;;;21.45;8.82;;;11.60;99.90;;;;;;4920569;29;20513;-84
2022/03/06 12:55:15;;;;;;;18.33;6.95;;;11.60;99.90;;;;;;4921025;29;20035;-84
2022/03/06 12:57:54;;;;;;;18.65;8.25;;;11.70;99.90;;;;;;4920748;29;20032;-83